createdAt,value
2018-12-04T00:09:05.827Z,0.40
2018-12-04T00:11:33.324Z,0.40
2018-12-04T00:14:00.813Z,0.50
2018-12-04T00:16:28.317Z,0.30
2018-12-04T00:18:56.407Z,0.53
2018-12-04T00:21:23.937Z,0.30
2018-12-04T00:23:51.455Z,0.50
2018-12-04T00:26:18.984Z,0.40
2018-12-04T00:28:46.503Z,0.30
2018-12-04T00:31:13.995Z,0.40
2018-12-04T00:33:41.538Z,0.33
2018-12-04T00:36:09.709Z,0.40
2018-12-04T00:38:37.240Z,0.20
2018-12-04T00:41:04.763Z,0.40
2018-12-04T00:43:32.685Z,0.50
2018-12-04T00:46:00.217Z,0.30
2018-12-04T00:48:27.863Z,0.40
2018-12-04T00:50:55.697Z,0.40
2018-12-04T00:53:23.621Z,0.30
2018-12-04T00:55:51.101Z,0.47
2018-12-04T00:58:18.585Z,0.40
2018-12-04T01:00:46.112Z,0.30
2018-12-04T01:03:13.605Z,0.47
2018-12-04T01:05:41.185Z,0.50
2018-12-04T01:08:08.706Z,0.40
2018-12-04T01:10:36.199Z,0.60
2018-12-04T01:13:04.987Z,0.40
2018-12-04T01:15:32.495Z,0.50
2018-12-04T01:18:00.004Z,0.60
2018-12-04T01:20:28.060Z,0.60
2018-12-04T01:22:55.846Z,0.50
2018-12-04T01:25:23.379Z,0.50
2018-12-04T01:27:51.254Z,0.70
2018-12-04T01:32:57.792Z,0.73
2018-12-04T01:35:25.702Z,0.60
2018-12-04T01:37:53.180Z,0.63
2018-12-04T01:40:20.689Z,0.70
2018-12-04T01:42:48.467Z,0.67
2018-12-04T01:45:16.190Z,0.60
2018-12-04T01:47:43.676Z,0.70
2018-12-04T01:50:11.603Z,0.80
2018-12-04T01:52:39.136Z,0.50
2018-12-04T01:55:06.784Z,0.60
2018-12-04T01:57:34.283Z,0.80
2018-12-04T02:00:01.776Z,0.70
2018-12-04T02:02:29.267Z,0.70
2018-12-04T02:04:56.820Z,0.80
2018-12-04T02:07:24.317Z,0.70
2018-12-04T02:09:51.848Z,0.70
2018-12-04T02:12:19.365Z,0.70
2018-12-04T02:14:46.865Z,0.70
2018-12-04T02:17:14.373Z,0.90
2018-12-04T02:19:42.290Z,0.87
2018-12-04T02:22:09.827Z,0.80
2018-12-04T02:24:37.312Z,0.73
2018-12-04T02:27:04.848Z,0.93
2018-12-04T02:29:32.382Z,0.77
2018-12-04T02:32:00.060Z,0.70
2018-12-04T02:34:27.920Z,0.93
2018-12-04T02:36:55.994Z,1.00
2018-12-04T02:39:23.735Z,0.90
2018-12-04T02:41:51.244Z,1.00
2018-12-04T02:44:18.790Z,1.10
2018-12-04T02:46:47.200Z,1.10
2018-12-04T02:49:15.345Z,1.20
2018-12-04T02:51:42.853Z,1.27
2018-12-04T02:54:10.485Z,1.50
2018-12-04T02:56:37.984Z,1.30
2018-12-04T02:59:05.534Z,1.20
2018-12-04T03:01:33.017Z,1.20
2018-12-04T03:04:00.812Z,1.23
2018-12-04T03:06:28.704Z,1.00
2018-12-04T03:08:56.800Z,1.13
2018-12-04T03:11:24.334Z,1.10
2018-12-04T03:13:51.821Z,1.20
2018-12-04T03:16:19.425Z,1.00
2018-12-04T03:18:47.177Z,0.90
2018-12-04T03:21:14.931Z,1.20
2018-12-04T03:23:42.425Z,1.10
2018-12-04T03:26:09.921Z,1.10
2018-12-04T03:28:37.700Z,1.33
2018-12-04T03:31:05.198Z,1.00
2018-12-04T03:33:36.444Z,1.20
2018-12-04T03:36:04.513Z,1.20
2018-12-04T03:38:32.039Z,1.00
2018-12-04T03:40:59.576Z,1.20
2018-12-04T03:43:27.119Z,1.23
2018-12-04T03:45:54.631Z,1.20
2018-12-04T03:48:22.351Z,1.20
2018-12-04T03:50:50.303Z,1.13
2018-12-04T03:53:18.702Z,1.17
2018-12-04T03:55:46.189Z,1.30
2018-12-04T03:58:13.689Z,1.10
2018-12-04T04:00:41.672Z,1.03
2018-12-04T04:03:09.168Z,1.40
2018-12-04T04:05:37.165Z,0.97
2018-12-04T04:08:04.645Z,1.03
2018-12-04T04:10:32.182Z,1.00
2018-12-04T04:12:59.813Z,1.00
2018-12-04T04:15:27.362Z,0.83
2018-12-04T04:17:54.860Z,0.80
2018-12-04T04:20:23.009Z,0.93
2018-12-04T04:22:50.547Z,1.13
2018-12-04T04:25:18.357Z,1.10
2018-12-04T04:27:45.841Z,0.90
2018-12-04T04:30:13.331Z,1.10
2018-12-04T04:32:41.152Z,1.00
2018-12-04T04:35:09.074Z,1.03
2018-12-04T04:37:36.569Z,1.20
2018-12-04T04:40:05.096Z,0.93
2018-12-04T04:42:32.625Z,1.27
2018-12-04T04:45:00.114Z,1.07
2018-12-04T04:47:27.681Z,1.13
2018-12-04T04:49:55.743Z,1.10
2018-12-04T04:52:23.306Z,1.00
2018-12-04T04:54:50.868Z,1.17
2018-12-04T04:57:18.423Z,0.80
2018-12-04T04:59:46.125Z,0.90
2018-12-04T05:02:13.620Z,0.90
2018-12-04T05:04:41.595Z,0.90
2018-12-04T05:07:09.084Z,0.80
2018-12-04T05:09:36.947Z,1.00
2018-12-04T05:12:04.497Z,1.00
2018-12-04T05:14:32.339Z,1.03
2018-12-04T05:16:59.816Z,0.97
2018-12-04T05:19:27.589Z,0.90
2018-12-04T05:21:55.093Z,1.00
2018-12-04T05:24:22.600Z,1.10
2018-12-04T05:26:50.584Z,0.90
2018-12-04T05:29:18.072Z,1.30
2018-12-04T05:31:46.069Z,1.00
2018-12-04T05:34:13.762Z,1.00
2018-12-04T05:36:41.680Z,0.80
2018-12-04T05:39:09.192Z,1.00
2018-12-04T05:41:36.693Z,1.20
2018-12-04T05:44:04.804Z,0.93
2018-12-04T05:46:32.335Z,1.33
2018-12-04T05:49:00.075Z,1.13
2018-12-04T05:51:27.560Z,1.17
2018-12-04T05:53:55.052Z,1.27
2018-12-04T05:56:22.611Z,1.20
2018-12-04T05:58:50.434Z,1.10
2018-12-04T06:01:17.935Z,0.97
2018-12-04T06:03:45.929Z,1.03
2018-12-04T06:06:13.405Z,1.10
2018-12-04T06:08:40.927Z,0.90
2018-12-04T06:11:08.624Z,0.80
2018-12-04T06:13:36.472Z,0.90
2018-12-04T06:16:04.031Z,0.80
2018-12-04T06:18:31.816Z,1.00
2018-12-04T06:20:59.355Z,0.97
2018-12-04T06:23:26.851Z,0.90
2018-12-04T06:25:54.676Z,1.10
2018-12-04T06:28:22.162Z,1.20
2018-12-04T06:30:49.702Z,1.10
2018-12-04T06:33:17.613Z,1.53
2018-12-04T06:35:45.581Z,1.10
2018-12-04T06:38:13.083Z,1.20
2018-12-04T06:40:40.607Z,1.07
2018-12-04T06:43:08.103Z,1.20
2018-12-04T06:45:35.650Z,1.27
2018-12-04T06:48:03.237Z,1.50
2018-12-04T06:50:31.101Z,1.10
2018-12-04T06:52:58.596Z,1.27
2018-12-04T06:55:26.565Z,1.10
2018-12-04T06:57:56.276Z,1.10
2018-12-04T07:00:24.346Z,1.07
2018-12-04T07:02:52.160Z,1.13
2018-12-04T07:05:20.588Z,0.90
2018-12-04T07:07:48.112Z,1.10
2018-12-04T07:10:15.793Z,1.27
2018-12-04T07:12:43.276Z,1.57
2018-12-04T07:15:10.824Z,1.33
2018-12-04T07:17:38.387Z,1.70
2018-12-04T07:20:06.642Z,1.60
2018-12-04T07:22:34.672Z,1.60
2018-12-04T07:25:02.195Z,1.87
2018-12-04T07:27:29.736Z,1.70
2018-12-04T07:29:57.234Z,1.60
2018-12-04T07:32:25.239Z,1.30
2018-12-04T07:34:52.833Z,1.70
2018-12-04T07:37:20.382Z,1.70
2018-12-04T07:39:48.661Z,1.20
2018-12-04T07:42:16.189Z,1.50
2018-12-04T07:44:43.723Z,1.20
2018-12-04T07:47:11.489Z,1.40
2018-12-04T07:49:39.275Z,1.20
2018-12-04T07:52:06.788Z,1.67
2018-12-04T07:54:34.309Z,1.60
2018-12-04T07:57:01.821Z,1.43
2018-12-04T07:59:29.348Z,1.33
2018-12-04T08:01:56.840Z,1.33
2018-12-04T08:04:24.787Z,1.20
2018-12-04T08:06:52.311Z,1.03
2018-12-04T08:09:19.827Z,1.27
2018-12-04T08:11:47.370Z,1.60
2018-12-04T08:14:14.891Z,1.33
2018-12-04T08:16:42.422Z,1.20
2018-12-04T08:19:10.426Z,1.30
2018-12-04T08:21:38.252Z,1.27
2018-12-04T08:24:05.751Z,1.23
2018-12-04T08:26:33.393Z,1.10
2018-12-04T08:29:00.872Z,1.30
2018-12-04T08:31:28.405Z,1.07
2018-12-04T08:33:57.035Z,1.20
2018-12-04T08:36:24.778Z,1.40
2018-12-04T08:38:52.249Z,1.37
2018-12-04T08:41:19.740Z,1.33
2018-12-04T08:43:47.410Z,1.20
2018-12-04T08:46:14.901Z,1.37
2018-12-04T08:48:42.470Z,1.33
2018-12-04T08:51:10.385Z,1.43
2018-12-04T08:53:37.886Z,1.70
2018-12-04T08:56:05.368Z,1.70
2018-12-04T08:58:32.886Z,1.30
2018-12-04T09:01:01.288Z,1.70
2018-12-04T09:03:29.131Z,1.80
2018-12-04T09:05:57.029Z,1.47
2018-12-04T09:08:24.558Z,1.60
2018-12-04T09:10:52.042Z,2.00
2018-12-04T09:13:19.957Z,1.70
2018-12-04T09:15:47.458Z,1.90
2018-12-04T09:18:15.380Z,1.50
2018-12-04T09:20:43.533Z,1.60
2018-12-04T09:23:11.503Z,1.67
2018-12-04T09:25:39.009Z,1.50
2018-12-04T09:28:06.602Z,1.50
2018-12-04T09:30:34.215Z,1.30
2018-12-04T09:33:02.053Z,1.50
2018-12-04T09:35:30.075Z,1.23
2018-12-04T09:37:57.564Z,1.20
2018-12-04T09:40:25.057Z,1.37
2018-12-04T09:42:52.653Z,1.37
2018-12-04T09:45:20.142Z,1.50
2018-12-04T09:47:47.657Z,1.60
2018-12-04T09:50:15.489Z,1.80
2018-12-04T09:55:04.759Z,1.60
2018-12-04T09:57:32.303Z,1.87
2018-12-04T09:59:59.868Z,1.97
2018-12-04T10:02:27.379Z,1.70
2018-12-04T10:04:55.168Z,1.90
2018-12-04T10:07:22.681Z,2.50
2018-12-04T10:09:50.535Z,2.20
2018-12-04T10:12:18.066Z,2.77
2018-12-04T10:14:46.447Z,2.23
2018-12-04T10:17:13.944Z,2.03
2018-12-04T10:19:41.623Z,2.50
2018-12-04T10:22:09.151Z,2.50
2018-12-04T10:24:36.683Z,2.10
2018-12-04T10:27:04.205Z,2.50
2018-12-04T10:29:31.700Z,3.00
2018-12-04T10:31:59.951Z,1.93
2018-12-04T10:34:27.811Z,1.70
2018-12-04T10:36:55.507Z,1.40
2018-12-04T10:39:23.043Z,1.30
2018-12-04T10:41:50.541Z,2.00
2018-12-04T10:44:18.378Z,1.43
2018-12-04T10:46:45.867Z,1.43
2018-12-04T10:49:13.912Z,1.00
2018-12-04T10:51:41.450Z,1.40
2018-12-04T10:54:09.458Z,1.43
2018-12-04T10:56:36.975Z,1.27
2018-12-04T10:59:04.509Z,1.70
2018-12-04T11:01:39.616Z,1.50
2018-12-04T11:04:07.329Z,1.20
2018-12-04T11:06:34.844Z,1.00
2018-12-04T11:09:03.191Z,1.30
2018-12-04T11:11:30.617Z,0.70
2018-12-04T11:13:58.075Z,0.80
2018-12-04T11:16:25.571Z,1.00
2018-12-04T11:18:53.429Z,0.90
2018-12-04T11:21:20.923Z,1.00
2018-12-04T11:23:48.369Z,1.70
2018-12-04T11:26:15.922Z,1.40
2018-12-04T11:28:43.415Z,1.60
2018-12-04T11:31:10.865Z,1.70
2018-12-04T11:33:38.643Z,1.70
2018-12-04T11:36:06.513Z,2.10
2018-12-04T11:38:33.953Z,2.37
2018-12-04T11:41:01.436Z,2.50
2018-12-04T11:43:28.909Z,1.30
2018-12-04T11:45:56.339Z,1.60
2018-12-04T11:48:23.773Z,1.73
2018-12-04T11:50:51.537Z,1.30
2018-12-04T11:53:19.292Z,1.73
2018-12-04T11:55:46.737Z,1.40
2018-12-04T11:58:14.600Z,1.30
2018-12-04T12:00:42.030Z,1.60
2018-12-04T12:03:09.529Z,1.30
2018-12-04T12:05:38.536Z,1.50
2018-12-04T12:08:06.072Z,1.70
2018-12-04T12:10:34.142Z,1.53
2018-12-04T12:13:01.590Z,1.60
2018-12-04T12:15:29.033Z,1.40
2018-12-04T12:17:58.341Z,1.30
2018-12-04T12:20:26.064Z,1.77
2018-12-04T12:22:53.490Z,1.67
2018-12-04T12:25:20.945Z,1.40
2018-12-04T12:27:48.428Z,1.20
2018-12-04T12:30:15.944Z,1.50
2018-12-04T12:32:43.917Z,1.50
2018-12-04T12:35:11.671Z,1.33
2018-12-04T12:37:39.113Z,1.17
2018-12-04T12:40:06.809Z,1.20
2018-12-04T12:42:34.355Z,1.20
2018-12-04T12:45:01.959Z,1.30
2018-12-04T12:47:29.487Z,1.27
2018-12-04T12:49:57.440Z,1.30
2018-12-04T12:52:24.914Z,1.30
2018-12-04T12:54:52.573Z,1.00
2018-12-04T12:57:20.334Z,0.90
2018-12-04T12:59:47.805Z,1.20
2018-12-04T13:02:15.283Z,1.10
2018-12-04T13:04:42.957Z,1.27
2018-12-04T13:07:10.470Z,1.40
2018-12-04T13:09:37.931Z,1.43
2018-12-04T13:12:05.419Z,1.40
2018-12-04T13:14:32.859Z,1.40
2018-12-04T13:17:00.417Z,1.37
2018-12-04T13:19:28.145Z,1.20
2018-12-04T13:21:55.705Z,1.40
2018-12-04T13:24:23.149Z,1.47
2018-12-04T13:26:50.645Z,1.80
2018-12-04T13:29:18.101Z,1.40
2018-12-04T13:31:45.947Z,1.30
2018-12-04T13:34:13.718Z,1.00
2018-12-04T13:36:42.364Z,1.40
2018-12-04T13:39:10.520Z,1.20
2018-12-04T13:44:12.873Z,1.20
2018-12-04T13:46:40.776Z,1.57
2018-12-04T13:49:09.083Z,2.10
2018-12-04T13:51:36.659Z,1.30
2018-12-04T13:54:04.171Z,1.40
2018-12-04T13:56:31.631Z,2.00
2018-12-04T13:58:59.170Z,1.80
2018-12-04T14:01:26.681Z,1.57
2018-12-04T14:03:55.438Z,2.53
2018-12-04T14:06:22.967Z,2.00
2018-12-04T14:08:50.450Z,1.80
2018-12-04T14:11:18.285Z,2.23
2018-12-04T14:13:46.220Z,2.27
2018-12-04T14:16:13.773Z,2.20
2018-12-04T14:18:41.857Z,1.90
2018-12-04T14:21:09.323Z,2.37
2018-12-04T14:23:36.763Z,2.33
2018-12-04T14:26:04.421Z,1.90
2018-12-04T14:28:32.048Z,2.20
2018-12-04T14:30:59.555Z,2.10
2018-12-04T14:33:27.390Z,2.60
2018-12-04T14:35:55.289Z,2.63
2018-12-04T14:38:24.667Z,2.23
2018-12-04T14:40:52.556Z,2.40
2018-12-04T14:43:20.697Z,2.20
2018-12-04T14:45:48.240Z,2.40
2018-12-04T14:48:15.661Z,2.67
2018-12-04T14:50:43.398Z,2.10
2018-12-04T14:53:10.929Z,2.60
2018-12-04T14:55:38.483Z,3.00
2018-12-04T14:58:06.027Z,3.03
2018-12-04T15:00:33.540Z,2.70
2018-12-04T15:03:01.011Z,2.40
2018-12-04T15:05:28.888Z,2.50
2018-12-04T15:07:56.654Z,2.67
2018-12-04T15:10:24.198Z,3.60
2018-12-04T15:12:51.707Z,1.90
2018-12-04T15:15:19.271Z,1.90
2018-12-04T15:17:46.718Z,2.30
2018-12-04T15:20:15.573Z,2.40
2018-12-04T15:22:43.113Z,3.20
2018-12-04T15:25:10.980Z,2.70
2018-12-04T15:27:38.734Z,2.70
2018-12-04T15:30:07.253Z,2.37
2018-12-04T15:32:35.161Z,2.40
2018-12-04T15:35:03.125Z,2.10
2018-12-04T15:37:30.668Z,2.13
2018-12-04T15:39:58.226Z,2.23
2018-12-04T15:42:25.854Z,2.80
2018-12-04T15:44:53.289Z,2.30
2018-12-04T15:47:20.826Z,2.80
2018-12-04T15:49:48.683Z,2.40
2018-12-04T15:52:16.336Z,2.30
2018-12-04T15:54:44.307Z,2.10
2018-12-04T15:57:11.816Z,2.40
2018-12-04T15:59:39.286Z,2.20
2018-12-04T16:02:06.986Z,2.40
2018-12-04T16:04:34.985Z,2.50
2018-12-04T16:07:02.482Z,2.60
2018-12-04T16:09:29.972Z,2.30
2018-12-04T16:11:57.525Z,1.90
2018-12-04T16:14:25.299Z,2.00
2018-12-04T16:16:52.745Z,1.80
2018-12-04T16:19:20.782Z,1.87
2018-12-04T16:21:48.251Z,2.30
2018-12-04T16:24:15.681Z,2.83
2018-12-04T16:26:43.153Z,2.87
2018-12-04T16:29:10.926Z,1.83
2018-12-04T16:31:40.766Z,1.83
2018-12-04T16:34:08.844Z,3.10
2018-12-04T16:36:36.619Z,2.50
2018-12-04T16:39:06.319Z,2.17
2018-12-04T16:41:33.964Z,1.73
2018-12-04T16:44:01.678Z,1.83
2018-12-04T16:46:29.215Z,1.50
2018-12-04T16:48:57.042Z,1.83
2018-12-04T16:51:24.577Z,2.57
2018-12-04T16:56:16.743Z,2.70
2018-12-04T17:01:20.301Z,2.20
2018-12-04T17:03:47.946Z,2.43
2018-12-04T17:06:15.826Z,2.90
2018-12-04T17:08:43.538Z,2.10
2018-12-04T17:11:11.018Z,2.87
2018-12-04T17:13:38.449Z,3.00
2018-12-04T17:16:05.910Z,2.50
2018-12-04T17:18:37.702Z,2.00
2018-12-04T17:21:03.233Z,2.10
2018-12-04T17:23:30.713Z,2.87
2018-12-04T17:25:58.189Z,2.70
2018-12-04T17:28:25.627Z,2.27
2018-12-04T17:30:53.140Z,2.60
2018-12-04T17:33:21.020Z,2.50
2018-12-04T17:35:49.039Z,2.50
2018-12-04T17:38:16.480Z,2.90
2018-12-04T17:40:44.028Z,2.73
2018-12-04T17:43:11.516Z,2.80
2018-12-04T17:45:39.738Z,2.40
2018-12-04T17:48:07.178Z,2.40
2018-12-04T17:50:35.038Z,2.77
2018-12-04T17:53:02.722Z,2.80
2018-12-04T17:55:30.370Z,3.30
2018-12-04T17:57:57.848Z,2.93
2018-12-04T18:00:25.309Z,3.43
2018-12-04T18:02:53.172Z,3.00
2018-12-04T18:05:21.792Z,3.70
2018-12-04T18:07:49.686Z,2.90
2018-12-04T18:10:17.141Z,3.40
2018-12-04T18:12:44.582Z,3.03
2018-12-04T18:15:12.205Z,2.83
2018-12-04T18:20:07.667Z,3.50
2018-12-04T18:22:35.166Z,3.40
2018-12-04T18:25:02.601Z,3.30
2018-12-04T18:27:30.087Z,3.50
2018-12-04T18:29:57.696Z,3.70
2018-12-04T18:32:26.020Z,3.93
2018-12-04T18:34:53.726Z,3.90
2018-12-04T18:37:21.349Z,3.43
2018-12-04T18:39:48.944Z,3.80
2018-12-04T18:42:16.393Z,3.60
2018-12-04T18:44:44.047Z,3.90
2018-12-04T18:47:11.492Z,3.57
2018-12-04T18:49:39.158Z,4.00
2018-12-04T18:52:06.721Z,4.30
2018-12-04T18:54:34.227Z,4.40
2018-12-04T18:57:01.705Z,4.73
2018-12-04T18:59:29.209Z,4.20
2018-12-04T19:01:56.729Z,4.30
2018-12-04T19:04:24.436Z,4.27
2018-12-04T19:06:52.096Z,4.33
2018-12-04T19:09:19.796Z,4.07
2018-12-04T19:11:47.246Z,4.37
2018-12-04T19:14:14.692Z,4.70
2018-12-04T19:16:42.149Z,4.03
2018-12-04T19:19:10.020Z,4.43
2018-12-04T19:21:37.461Z,4.13
2018-12-04T19:24:04.975Z,5.93
2018-12-04T19:26:32.864Z,5.50
2018-12-04T19:29:00.322Z,5.70
2018-12-04T19:31:27.840Z,5.87
2018-12-04T19:33:55.503Z,7.07
2018-12-04T19:36:23.356Z,5.90
2018-12-04T19:38:51.290Z,6.20
2018-12-04T19:41:18.744Z,6.50
2018-12-04T19:43:46.230Z,6.70
2018-12-04T19:46:13.712Z,6.60
2018-12-04T19:48:41.273Z,6.00
2018-12-04T19:51:09.341Z,5.37
2018-12-04T19:53:37.464Z,5.47
2018-12-04T19:56:05.239Z,5.57
2018-12-04T19:58:33.495Z,5.63
2018-12-04T20:01:01.013Z,5.80
2018-12-04T20:03:28.784Z,5.37
2018-12-04T20:05:56.388Z,5.20
2018-12-04T20:08:26.059Z,4.37
2018-12-04T20:10:53.497Z,4.27
2018-12-04T20:13:21.625Z,4.50
2018-12-04T20:15:49.221Z,5.00
2018-12-04T20:18:17.397Z,6.60
2018-12-04T20:20:44.925Z,6.40
2018-12-04T20:23:12.718Z,5.97
2018-12-04T20:25:41.105Z,5.67
2018-12-04T20:28:08.631Z,5.80
2018-12-04T20:30:36.121Z,6.70
2018-12-04T20:33:03.843Z,6.40
2018-12-04T20:35:31.715Z,7.27
2018-12-04T20:37:59.511Z,5.90
2018-12-04T20:40:31.582Z,7.30
2018-12-04T20:42:57.224Z,6.40
2018-12-04T20:45:24.695Z,7.40
2018-12-04T20:47:52.390Z,6.67
2018-12-04T20:50:20.127Z,6.53
2018-12-04T20:52:47.837Z,6.27
2018-12-04T20:55:15.460Z,5.87
2018-12-04T20:57:43.158Z,5.90
2018-12-04T21:00:11.297Z,5.90
2018-12-04T21:02:39.345Z,5.60
2018-12-04T21:05:07.169Z,5.67
2018-12-04T21:07:34.601Z,5.40
2018-12-04T21:10:02.235Z,5.53
2018-12-04T21:12:29.916Z,5.40
2018-12-04T21:14:57.433Z,6.03
2018-12-04T21:17:26.078Z,5.57
2018-12-04T21:19:53.653Z,5.80
2018-12-04T21:22:21.323Z,6.43
2018-12-04T21:24:49.030Z,5.47
2018-12-04T21:27:22.422Z,5.30
2018-12-04T21:29:55.568Z,5.57
2018-12-04T21:32:29.069Z,6.60
2018-12-04T21:35:03.345Z,7.90
2018-12-04T21:37:36.337Z,6.87
2018-12-04T21:40:09.652Z,6.70
2018-12-04T21:42:42.636Z,6.67
2018-12-04T21:45:15.922Z,9.20
2018-12-04T21:48:00.254Z,7.97
2018-12-04T21:50:27.894Z,8.20
2018-12-04T21:52:55.355Z,7.20
2018-12-04T21:55:26.122Z,6.90
2018-12-04T21:57:53.626Z,7.13
2018-12-04T22:00:21.335Z,6.97
2018-12-04T22:02:48.807Z,8.80
2018-12-04T22:05:16.344Z,9.27
2018-12-04T22:07:43.847Z,7.20
2018-12-04T22:10:11.489Z,7.00
2018-12-04T22:12:39.426Z,7.27
2018-12-04T22:15:07.208Z,7.83
2018-12-04T22:17:34.649Z,6.70
2018-12-04T22:20:03.845Z,8.30
2018-12-04T22:22:31.349Z,6.77
2018-12-04T22:24:58.833Z,7.40
2018-12-04T22:27:26.287Z,7.33
2018-12-04T22:29:53.725Z,7.03
2018-12-04T22:32:21.352Z,7.50
2018-12-04T22:34:49.497Z,7.57
2018-12-04T22:37:16.988Z,6.40
2018-12-04T22:39:45.507Z,7.80
2018-12-04T22:42:12.986Z,6.90
2018-12-04T22:44:43.939Z,7.23
2018-12-04T22:47:11.741Z,6.67
2018-12-04T22:49:40.201Z,7.03
2018-12-04T22:52:08.000Z,8.07
2018-12-04T22:54:35.501Z,6.57
2018-12-04T22:57:03.001Z,7.80
2018-12-04T22:59:30.577Z,6.33
2018-12-04T23:01:58.363Z,6.30
2018-12-04T23:04:26.049Z,6.20
2018-12-04T23:06:53.547Z,7.17
2018-12-04T23:09:21.255Z,6.70
2018-12-04T23:11:48.780Z,6.47
2018-12-04T23:14:16.297Z,6.67
2018-12-04T23:16:43.944Z,7.27
2018-12-04T23:19:11.603Z,6.17
2018-12-04T23:21:39.427Z,6.10
2018-12-04T23:24:06.971Z,5.40
2018-12-04T23:26:34.400Z,5.50
2018-12-04T23:29:01.967Z,6.80
2018-12-04T23:31:29.709Z,5.83
2018-12-04T23:33:57.437Z,6.20
2018-12-04T23:36:25.237Z,6.60
2018-12-04T23:38:52.709Z,6.30
2018-12-04T23:41:20.189Z,5.77
2018-12-04T23:43:47.617Z,6.10
2018-12-04T23:46:15.072Z,6.07
2018-12-04T23:48:42.929Z,6.23
2018-12-04T23:51:10.617Z,5.30
2018-12-04T23:53:38.057Z,7.03
2018-12-04T23:56:06.249Z,7.87
2018-12-04T23:58:33.762Z,8.00
